createdAt,value
2022-09-11T00:01:10.613Z,19.17
2022-09-11T00:03:12.153Z,19.22
2022-09-11T00:05:15.290Z,19.23
2022-09-11T00:07:18.148Z,19.18
2022-09-11T00:09:19.663Z,19.17
2022-09-11T00:11:21.985Z,19.21
2022-09-11T00:13:23.535Z,19.22
2022-09-11T00:15:25.004Z,19.23
2022-09-11T00:17:26.492Z,19.28
2022-09-11T00:19:28.053Z,19.32
2022-09-11T00:21:30.155Z,19.34
2022-09-11T00:23:33.039Z,19.29
2022-09-11T00:25:34.931Z,19.21
2022-09-11T00:27:36.368Z,19.17
2022-09-11T00:29:37.852Z,19.13
2022-09-11T00:31:39.942Z,19.17
2022-09-11T00:33:41.928Z,19.27
2022-09-11T00:35:54.505Z,19.32
2022-09-11T00:37:56.099Z,19.23
2022-09-11T00:39:59.090Z,19.33
2022-09-11T00:42:00.682Z,19.25
2022-09-11T00:44:04.920Z,19.22
2022-09-11T00:46:06.533Z,19.31
2022-09-11T00:48:09.049Z,19.29
2022-09-11T00:50:13.677Z,19.34
2022-09-11T00:52:18.601Z,19.38
2022-09-11T00:54:25.189Z,19.38
2022-09-11T00:56:30.463Z,19.41
2022-09-11T00:58:36.410Z,19.41
2022-09-11T01:00:39.164Z,19.43
2022-09-11T01:02:45.888Z,19.45
2022-09-11T01:04:47.368Z,19.49
2022-09-11T01:06:51.073Z,19.51
2022-09-11T01:08:52.580Z,19.54
2022-09-11T01:11:04.643Z,19.52
2022-09-11T01:13:12.982Z,19.52
2022-09-11T01:15:22.003Z,19.63
2022-09-11T01:17:29.261Z,19.60
2022-09-11T01:19:43.686Z,19.61
2022-09-11T01:22:07.483Z,19.63
2022-09-11T01:24:22.884Z,19.63
2022-09-11T01:27:01.213Z,19.65
2022-09-11T01:29:09.083Z,19.66
2022-09-11T01:31:14.127Z,19.67
2022-09-11T01:33:21.725Z,19.72
2022-09-11T01:35:33.959Z,19.73
2022-09-11T01:37:41.549Z,19.79
2022-09-11T01:39:51.681Z,19.79
2022-09-11T01:41:59.174Z,19.74
2022-09-11T01:44:04.714Z,19.76
2022-09-11T01:46:08.843Z,19.75
2022-09-11T01:48:13.129Z,19.73
2022-09-11T01:50:18.419Z,19.76
2022-09-11T01:52:23.251Z,19.78
2022-09-11T01:54:32.259Z,19.76
2022-09-11T01:56:39.029Z,19.75
2022-09-11T01:58:41.329Z,19.79
2022-09-11T02:00:45.712Z,19.76
2022-09-11T02:02:53.412Z,19.70
2022-09-11T02:05:01.508Z,19.65
2022-09-11T02:07:07.641Z,19.70
2022-09-11T02:09:13.529Z,19.63
2022-09-11T02:11:16.040Z,19.62
2022-09-11T02:13:27.184Z,19.66
2022-09-11T02:15:38.060Z,19.64
2022-09-11T02:17:47.813Z,19.62
2022-09-11T02:19:52.093Z,19.58
2022-09-11T02:21:53.915Z,19.58
2022-09-11T02:23:55.803Z,19.60
2022-09-11T02:25:57.368Z,19.60
2022-09-11T02:27:59.042Z,19.60
2022-09-11T02:30:00.852Z,19.63
2022-09-11T02:32:03.247Z,19.59
2022-09-11T02:34:05.273Z,19.60
2022-09-11T02:36:24.309Z,19.61
2022-09-11T02:38:32.126Z,19.62
2022-09-11T02:40:44.325Z,19.61
2022-09-11T02:43:06.459Z,19.64
2022-09-11T02:45:20.390Z,19.60
2022-09-11T02:47:38.932Z,19.61
2022-09-11T02:49:52.710Z,19.59
2022-09-11T02:52:05.488Z,19.57
2022-09-11T02:54:17.980Z,19.58
2022-09-11T02:56:28.638Z,19.59
2022-09-11T02:58:35.554Z,19.59
2022-09-11T03:00:37.113Z,19.61
2022-09-11T03:02:41.995Z,19.59
2022-09-11T03:04:43.871Z,19.60
2022-09-11T03:06:45.459Z,19.57
2022-09-11T03:08:48.489Z,19.62
2022-09-11T03:10:50.103Z,19.60
2022-09-11T03:12:51.559Z,19.58
2022-09-11T03:14:53.065Z,19.62
2022-09-11T03:16:54.601Z,19.60
2022-09-11T03:18:56.073Z,19.63
2022-09-11T03:20:57.572Z,19.67
2022-09-11T03:22:59.138Z,19.68
2022-09-11T03:25:02.008Z,19.70
2022-09-11T03:27:03.740Z,19.69
2022-09-11T03:29:05.657Z,19.71
2022-09-11T03:31:07.306Z,19.71
2022-09-11T03:33:09.195Z,19.71
2022-09-11T03:35:10.676Z,19.70
2022-09-11T03:37:12.230Z,19.68
2022-09-11T03:39:13.737Z,19.68
2022-09-11T03:41:16.539Z,19.69
2022-09-11T03:43:17.982Z,19.68
2022-09-11T03:45:20.096Z,19.67
2022-09-11T03:47:21.609Z,19.66
2022-09-11T03:49:23.107Z,19.69
2022-09-11T03:51:24.736Z,19.68
2022-09-11T03:53:26.551Z,19.68
2022-09-11T03:55:28.043Z,19.69
2022-09-11T03:57:32.762Z,19.67
2022-09-11T03:59:34.256Z,19.68
2022-09-11T04:01:35.754Z,19.70
2022-09-11T04:03:37.246Z,19.72
2022-09-11T04:05:38.848Z,19.72
2022-09-11T04:07:40.584Z,19.76
2022-09-11T04:09:42.076Z,19.78
2022-09-11T04:11:43.653Z,19.80
2022-09-11T04:13:46.626Z,19.80
2022-09-11T04:15:48.120Z,19.79
2022-09-11T04:17:49.700Z,19.78
2022-09-11T04:19:51.168Z,19.80
2022-09-11T04:21:52.651Z,19.80
2022-09-11T04:23:54.821Z,19.78
2022-09-11T04:25:56.380Z,19.76
2022-09-11T04:27:57.841Z,19.76
2022-09-11T04:30:00.742Z,19.79
2022-09-11T04:32:02.620Z,19.84
2022-09-11T04:34:04.418Z,19.85
2022-09-11T04:36:07.059Z,19.87
2022-09-11T04:38:08.616Z,19.87
2022-09-11T04:40:10.450Z,19.90
2022-09-11T04:42:12.012Z,19.86
2022-09-11T04:44:13.809Z,19.90
2022-09-11T04:46:17.694Z,19.91
2022-09-11T04:48:19.320Z,19.90
2022-09-11T04:50:20.770Z,19.85
2022-09-11T04:52:22.293Z,19.84
2022-09-11T04:54:23.782Z,19.86
2022-09-11T04:56:27.181Z,19.91
2022-09-11T04:58:28.939Z,19.87
2022-09-11T05:00:30.497Z,19.83
2022-09-11T05:02:33.395Z,19.83
2022-09-11T05:04:34.975Z,19.76
2022-09-11T05:06:36.742Z,19.78
2022-09-11T05:08:38.255Z,19.93
2022-09-11T05:10:42.533Z,19.93
2022-09-11T05:12:44.022Z,19.87
2022-09-11T05:14:45.648Z,19.85
2022-09-11T05:16:47.293Z,19.83
2022-09-11T05:18:51.700Z,19.82
2022-09-11T05:20:59.087Z,19.93
2022-09-11T05:23:00.621Z,19.99
2022-09-11T05:25:02.135Z,19.85
2022-09-11T05:27:04.030Z,19.84
2022-09-11T05:29:07.647Z,19.85
2022-09-11T05:31:13.930Z,19.85
2022-09-11T05:33:15.452Z,19.85
2022-09-11T05:35:18.352Z,19.88
2022-09-11T05:37:19.812Z,19.88
2022-09-11T05:39:21.429Z,19.86
2022-09-11T05:41:23.106Z,19.79
2022-09-11T05:43:24.685Z,19.81
2022-09-11T05:45:26.195Z,19.78
2022-09-11T05:47:27.726Z,19.77
2022-09-11T05:49:29.204Z,19.77
2022-09-11T05:51:32.062Z,19.79
2022-09-11T05:53:34.247Z,19.76
2022-09-11T05:55:35.853Z,19.73
2022-09-11T05:57:37.357Z,19.76
2022-09-11T05:59:38.820Z,19.79
2022-09-11T06:01:40.466Z,19.82
2022-09-11T06:03:42.816Z,19.86
2022-09-11T06:05:44.668Z,19.86
2022-09-11T06:07:47.590Z,19.83
2022-09-11T06:09:49.142Z,19.83
2022-09-11T06:11:50.646Z,19.80
2022-09-11T06:13:52.330Z,19.81
2022-09-11T06:15:53.855Z,19.79
2022-09-11T06:17:55.877Z,19.79
2022-09-11T06:19:57.389Z,19.73
2022-09-11T06:21:59.069Z,19.76
2022-09-11T06:24:02.464Z,19.74
2022-09-11T06:26:05.060Z,19.77
2022-09-11T06:28:06.561Z,19.77
2022-09-11T06:30:09.281Z,19.81
2022-09-11T06:32:11.185Z,19.81
2022-09-11T06:34:12.694Z,19.84
2022-09-11T06:36:16.003Z,19.83
2022-09-11T06:38:17.549Z,19.84
2022-09-11T06:40:20.401Z,19.88
2022-09-11T06:42:21.869Z,19.87
2022-09-11T06:44:23.344Z,19.84
2022-09-11T06:46:26.004Z,19.88
2022-09-11T06:48:27.544Z,19.95
2022-09-11T06:50:29.153Z,19.98
2022-09-11T06:52:33.278Z,20.02
2022-09-11T06:54:34.824Z,20.07
2022-09-11T06:56:37.751Z,20.11
2022-09-11T06:58:39.559Z,20.15
2022-09-11T07:00:41.060Z,20.22
2022-09-11T07:02:42.679Z,20.26
2022-09-11T07:04:44.212Z,20.25
2022-09-11T07:06:45.754Z,20.35
2022-09-11T07:08:50.557Z,20.49
2022-09-11T07:10:52.199Z,20.55
2022-09-11T07:12:55.181Z,20.62
2022-09-11T07:14:56.759Z,20.68
2022-09-11T07:17:00.073Z,20.78
2022-09-11T07:19:01.703Z,20.89
2022-09-11T07:21:06.769Z,20.95
2022-09-11T07:23:08.837Z,20.91
2022-09-11T07:25:10.383Z,20.91
2022-09-11T07:27:11.884Z,20.91
2022-09-11T07:29:15.111Z,20.89
2022-09-11T07:31:21.178Z,20.83
2022-09-11T07:33:22.865Z,20.78
2022-09-11T07:35:24.410Z,20.81
2022-09-11T07:37:25.911Z,20.86
2022-09-11T07:39:27.453Z,20.92
2022-09-11T07:41:29.227Z,20.95
2022-09-11T07:43:30.857Z,21.01
2022-09-11T07:45:34.532Z,21.10
2022-09-11T07:47:36.123Z,21.18
2022-09-11T07:49:37.664Z,21.32
2022-09-11T07:51:39.561Z,21.31
2022-09-11T07:53:43.479Z,21.31
2022-09-11T07:55:45.186Z,21.34
2022-09-11T07:57:46.773Z,21.34
2022-09-11T07:59:48.617Z,21.29
2022-09-11T08:01:51.703Z,21.27
2022-09-11T08:03:54.529Z,21.31
2022-09-11T08:05:57.617Z,21.30
2022-09-11T08:07:59.113Z,21.32
2022-09-11T08:10:25.646Z,21.31
2022-09-11T08:12:22.210Z,21.35
2022-09-11T08:14:24.622Z,21.38
2022-09-11T08:16:27.271Z,21.40
2022-09-11T08:18:30.347Z,21.42
2022-09-11T08:20:32.053Z,21.38
2022-09-11T08:22:33.590Z,21.39
2022-09-11T08:24:35.116Z,21.41
2022-09-11T08:26:36.917Z,21.45
2022-09-11T08:28:39.414Z,21.52
2022-09-11T08:30:40.960Z,21.84
2022-09-11T08:32:42.449Z,21.84
2022-09-11T08:34:45.383Z,21.73
2022-09-11T08:36:47.095Z,21.67
2022-09-11T08:38:48.964Z,21.78
2022-09-11T08:40:51.112Z,21.83
2022-09-11T08:42:55.431Z,21.88
2022-09-11T08:45:00.445Z,21.90
2022-09-11T08:47:06.586Z,21.98
2022-09-11T08:49:16.969Z,22.03
2022-09-11T08:51:20.404Z,22.18
2022-09-11T08:53:21.970Z,22.23
2022-09-11T08:55:29.897Z,22.22
2022-09-11T08:57:39.494Z,22.13
2022-09-11T08:59:59.248Z,21.97
2022-09-11T09:02:21.377Z,21.87
2022-09-11T09:04:35.608Z,22.06
2022-09-11T09:06:51.393Z,22.22
2022-09-11T09:09:03.140Z,22.30
2022-09-11T09:11:13.343Z,22.63
2022-09-11T09:13:31.907Z,22.95
2022-09-11T09:15:46.204Z,23.22
2022-09-11T09:17:53.550Z,23.41
2022-09-11T09:19:59.782Z,23.61
2022-09-11T09:22:10.347Z,23.74
2022-09-11T09:24:16.510Z,23.70
2022-09-11T09:26:18.898Z,23.85
2022-09-11T09:28:21.855Z,23.98
2022-09-11T09:30:23.877Z,23.95
2022-09-11T09:32:30.847Z,24.05
2022-09-11T09:34:36.912Z,24.13
2022-09-11T09:36:45.848Z,24.28
2022-09-11T09:38:48.801Z,24.29
2022-09-11T09:41:02.859Z,24.27
2022-09-11T09:43:28.374Z,24.23
2022-09-11T09:45:39.428Z,23.85
2022-09-11T09:47:43.564Z,23.75
2022-09-11T09:49:46.256Z,23.95
2022-09-11T09:51:48.498Z,24.30
2022-09-11T09:53:56.583Z,24.42
2022-09-11T09:55:59.623Z,24.40
2022-09-11T09:58:01.346Z,24.38
2022-09-11T10:00:14.845Z,24.34
2022-09-11T10:02:36.905Z,24.34
2022-09-11T10:04:38.571Z,24.52
2022-09-11T10:06:40.304Z,24.67
2022-09-11T10:08:42.341Z,24.74
2022-09-11T10:10:54.294Z,24.71
2022-09-11T10:13:17.572Z,24.84
2022-09-11T10:15:21.873Z,24.94
2022-09-11T10:17:30.923Z,24.92
2022-09-11T10:19:40.994Z,24.82
2022-09-11T10:21:42.508Z,24.65
2022-09-11T10:23:46.576Z,24.80
2022-09-11T10:25:49.718Z,25.02
2022-09-11T10:28:00.418Z,25.09
2022-09-11T10:30:02.555Z,25.07
2022-09-11T10:32:04.506Z,25.16
2022-09-11T10:34:06.537Z,24.94
2022-09-11T10:36:09.880Z,24.64
2022-09-11T10:38:17.256Z,24.25
2022-09-11T10:40:22.742Z,23.97
2022-09-11T10:42:27.864Z,23.92
2022-09-11T10:44:29.900Z,23.97
2022-09-11T10:46:40.584Z,23.73
2022-09-11T10:48:42.582Z,23.56
2022-09-11T10:50:44.163Z,23.49
2022-09-11T10:53:07.982Z,23.34
2022-09-11T10:55:12.819Z,23.20
2022-09-11T10:57:21.907Z,23.38
2022-09-11T10:59:32.197Z,23.72
2022-09-11T11:01:34.068Z,23.63
2022-09-11T11:03:35.843Z,23.47
2022-09-11T11:05:48.507Z,23.39
2022-09-11T11:08:17.820Z,23.26
2022-09-11T11:10:29.868Z,23.18
2022-09-11T11:12:50.617Z,23.14
2022-09-11T11:15:27.006Z,22.99
2022-09-11T11:17:41.860Z,23.01
2022-09-11T11:20:02.732Z,23.05
2022-09-11T11:22:12.642Z,23.01
2022-09-11T11:24:26.400Z,22.84
2022-09-11T11:26:46.569Z,22.77
2022-09-11T11:29:10.874Z,22.73
2022-09-11T11:31:31.076Z,22.70
2022-09-11T11:34:02.927Z,22.57
2022-09-11T11:36:09.113Z,22.47
2022-09-11T11:38:16.281Z,22.39
2022-09-11T11:40:27.017Z,22.35
2022-09-11T11:42:34.082Z,22.43
2022-09-11T11:44:41.731Z,22.60
2022-09-11T11:46:48.414Z,22.60
2022-09-11T11:48:54.557Z,22.50
2022-09-11T11:51:00.650Z,22.52
2022-09-11T11:53:07.931Z,22.49
2022-09-11T11:55:17.351Z,22.52
2022-09-11T11:57:22.059Z,22.53
2022-09-11T11:59:28.891Z,22.46
2022-09-11T12:01:38.049Z,22.43
2022-09-11T12:03:48.570Z,22.40
2022-09-11T12:05:50.400Z,22.39
2022-09-11T12:07:52.937Z,22.39
2022-09-11T12:09:56.280Z,22.38
2022-09-11T12:12:04.972Z,22.39
2022-09-11T12:14:06.973Z,22.32
2022-09-11T12:16:16.239Z,22.30
2022-09-11T12:18:23.670Z,22.28
2022-09-11T12:20:34.083Z,22.28
2022-09-11T12:22:39.916Z,22.32
2022-09-11T12:24:54.225Z,22.31
2022-09-11T12:27:32.998Z,22.37
2022-09-11T12:29:56.456Z,22.37
2022-09-11T12:32:37.732Z,22.40
2022-09-11T12:35:02.683Z,22.41
2022-09-11T12:37:12.265Z,22.44
2022-09-11T12:39:29.316Z,22.56
2022-09-11T12:41:33.305Z,22.69
2022-09-11T12:43:50.300Z,22.78
2022-09-11T12:45:52.028Z,22.82
2022-09-11T12:47:53.639Z,22.86
2022-09-11T12:50:06.738Z,22.82
2022-09-11T12:52:26.075Z,22.84
2022-09-11T12:54:37.176Z,22.85
2022-09-11T12:56:46.556Z,22.85
2022-09-11T12:58:54.940Z,22.82
2022-09-11T13:01:22.657Z,22.87
2022-09-11T13:03:26.816Z,22.84
2022-09-11T13:05:31.683Z,22.78
2022-09-11T13:07:41.730Z,22.77
2022-09-11T13:09:49.110Z,22.74
2022-09-11T13:11:52.270Z,22.74
2022-09-11T13:13:53.809Z,22.78
2022-09-11T13:15:55.332Z,22.78
2022-09-11T13:17:56.894Z,22.76
2022-09-11T13:20:23.026Z,22.76
2022-09-11T13:22:26.634Z,22.71
2022-09-11T13:24:31.426Z,22.70
2022-09-11T13:26:33.119Z,22.64
2022-09-11T13:28:43.331Z,22.63
2022-09-11T13:30:54.444Z,22.68
2022-09-11T13:33:05.525Z,22.70
2022-09-11T13:35:13.122Z,22.71
2022-09-11T13:37:25.916Z,22.75
2022-09-11T13:39:29.436Z,22.84
2022-09-11T13:41:37.809Z,22.91
2022-09-11T13:43:44.580Z,22.97
2022-09-11T13:45:47.485Z,23.00
2022-09-11T13:47:49.132Z,23.03
2022-09-11T13:49:54.176Z,23.02
2022-09-11T13:51:55.850Z,23.05
2022-09-11T13:54:03.954Z,23.09
2022-09-11T13:56:18.495Z,23.08
2022-09-11T13:58:23.140Z,23.06
2022-09-11T14:00:43.621Z,23.04
2022-09-11T14:02:50.893Z,22.98
2022-09-11T14:04:55.351Z,22.97
2022-09-11T14:06:57.341Z,22.95
2022-09-11T14:08:59.033Z,22.94
2022-09-11T14:11:08.123Z,22.91
2022-09-11T14:13:19.153Z,22.95
2022-09-11T14:15:28.050Z,22.96
2022-09-11T14:17:29.757Z,22.99
2022-09-11T14:19:35.893Z,23.01
2022-09-11T14:21:40.063Z,23.04
2022-09-11T14:23:44.962Z,23.08
2022-09-11T14:26:10.552Z,23.16
2022-09-11T14:28:35.637Z,23.19
2022-09-11T14:30:37.761Z,23.17
2022-09-11T14:32:39.511Z,23.11
2022-09-11T14:34:41.142Z,23.15
2022-09-11T14:36:45.942Z,23.16
2022-09-11T14:38:47.918Z,23.14
2022-09-11T14:40:53.949Z,23.17
2022-09-11T14:42:55.716Z,23.16
2022-09-11T14:44:59.126Z,23.15
2022-09-11T14:47:00.851Z,23.21
2022-09-11T14:49:02.437Z,23.22
2022-09-11T14:51:04.815Z,23.28
2022-09-11T14:53:06.381Z,23.29
2022-09-11T14:55:13.709Z,23.32
2022-09-11T14:57:20.550Z,23.34
2022-09-11T14:59:22.657Z,23.32
2022-09-11T15:01:25.600Z,23.29
2022-09-11T15:03:27.210Z,23.27
2022-09-11T15:05:28.821Z,23.30
2022-09-11T15:07:30.434Z,23.31
2022-09-11T15:09:31.916Z,23.31
2022-09-11T15:11:37.434Z,23.48
2022-09-11T15:13:52.765Z,23.74
2022-09-11T15:16:02.625Z,24.00
2022-09-11T15:18:05.771Z,24.10
2022-09-11T15:20:08.243Z,23.98
2022-09-11T15:22:10.009Z,23.86
2022-09-11T15:24:11.669Z,23.80
2022-09-11T15:26:13.207Z,23.76
2022-09-11T15:28:14.984Z,23.78
2022-09-11T15:30:16.883Z,23.73
2022-09-11T15:32:18.432Z,23.71
2022-09-11T15:34:22.898Z,23.72
2022-09-11T15:36:24.653Z,23.69
2022-09-11T15:38:26.363Z,23.65
2022-09-11T15:40:27.913Z,23.65
2022-09-11T15:42:29.583Z,23.58
2022-09-11T15:44:31.176Z,23.60
2022-09-11T15:46:32.722Z,23.56
2022-09-11T15:48:34.421Z,23.52
2022-09-11T15:50:37.352Z,23.53
2022-09-11T15:52:39.150Z,23.47
2022-09-11T15:54:41.089Z,23.46
2022-09-11T15:56:42.847Z,23.43
2022-09-11T15:58:46.217Z,23.54
2022-09-11T16:00:47.882Z,23.53
2022-09-11T16:02:51.186Z,23.51
2022-09-11T16:04:53.919Z,23.43
2022-09-11T16:06:57.051Z,23.38
2022-09-11T16:08:59.885Z,23.41
2022-09-11T16:11:03.500Z,23.39
2022-09-11T16:13:05.180Z,23.35
2022-09-11T16:15:07.526Z,23.39
2022-09-11T16:17:09.076Z,23.40
2022-09-11T16:19:10.664Z,23.38
2022-09-11T16:21:14.920Z,23.36
2022-09-11T16:23:17.907Z,23.36
2022-09-11T16:25:19.474Z,23.34
2022-09-11T16:27:21.168Z,23.31
2022-09-11T16:29:24.548Z,23.28
2022-09-11T16:31:26.146Z,23.29
2022-09-11T16:33:28.094Z,23.28
2022-09-11T16:35:29.718Z,23.26
2022-09-11T16:37:31.554Z,23.26
2022-09-11T16:39:34.464Z,23.24
2022-09-11T16:41:36.455Z,23.25
2022-09-11T16:43:39.444Z,23.25
2022-09-11T16:45:49.995Z,23.23
2022-09-11T16:47:51.731Z,23.22
2022-09-11T16:50:10.350Z,23.23
2022-09-11T16:52:12.336Z,23.21
2022-09-11T16:54:14.851Z,23.23
2022-09-11T16:56:19.872Z,23.25
2022-09-11T16:58:22.814Z,23.24
2022-09-11T17:00:24.373Z,23.22
2022-09-11T17:02:26.448Z,23.21
2022-09-11T17:04:28.183Z,23.18
2022-09-11T17:06:29.718Z,23.18
2022-09-11T17:08:31.317Z,23.17
2022-09-11T17:10:32.913Z,23.17
2022-09-11T17:12:35.821Z,23.17
2022-09-11T17:14:37.539Z,23.18
2022-09-11T17:16:39.079Z,23.16
2022-09-11T17:18:40.830Z,23.16
2022-09-11T17:20:42.771Z,23.15
2022-09-11T17:22:44.281Z,23.14
2022-09-11T17:24:45.806Z,23.10
2022-09-11T17:26:47.528Z,23.06
2022-09-11T17:28:51.520Z,23.06
2022-09-11T17:30:53.367Z,23.03
2022-09-11T17:32:55.123Z,23.00
2022-09-11T17:34:57.737Z,22.98
2022-09-11T17:36:59.251Z,22.97
2022-09-11T17:39:00.987Z,22.92
2022-09-11T17:41:05.673Z,22.87
2022-09-11T17:43:07.438Z,22.87
2022-09-11T17:45:11.684Z,22.84
2022-09-11T17:47:13.271Z,22.77
2022-09-11T17:49:14.890Z,22.76
2022-09-11T17:51:19.034Z,22.74
2022-09-11T17:53:20.568Z,22.68
2022-09-11T17:55:22.237Z,22.70
2022-09-11T17:57:24.041Z,22.68
2022-09-11T17:59:25.967Z,22.65
2022-09-11T18:01:31.715Z,22.63
2022-09-11T18:03:39.932Z,22.60
2022-09-11T18:05:41.745Z,22.60
2022-09-11T18:07:43.378Z,22.57
2022-09-11T18:09:46.282Z,22.47
2022-09-11T18:11:49.242Z,22.45
2022-09-11T18:13:50.887Z,22.44
2022-09-11T18:15:53.569Z,22.46
2022-09-11T18:17:56.907Z,22.48
2022-09-11T18:19:58.754Z,22.42
2022-09-11T18:22:00.549Z,22.37
2022-09-11T18:24:02.503Z,22.34
2022-09-11T18:26:04.889Z,22.32
2022-09-11T18:28:07.049Z,22.28
2022-09-11T18:30:09.907Z,22.27
2022-09-11T18:32:11.800Z,22.29
2022-09-11T18:34:17.674Z,22.25
2022-09-11T18:36:19.414Z,22.22
2022-09-11T18:38:21.187Z,22.22
2022-09-11T18:40:23.701Z,22.20
2022-09-11T18:42:25.298Z,22.09
2022-09-11T18:44:27.213Z,22.03
2022-09-11T18:46:28.952Z,22.01
2022-09-11T18:48:30.704Z,21.97
2022-09-11T18:50:35.815Z,21.95
2022-09-11T18:52:37.604Z,21.88
2022-09-11T18:54:39.489Z,21.83
2022-09-11T18:56:42.011Z,21.78
2022-09-11T18:58:44.046Z,21.70
2022-09-11T19:00:45.809Z,21.65
2022-09-11T19:02:48.641Z,21.62
2022-09-11T19:04:50.218Z,21.58
2022-09-11T19:06:53.599Z,21.56
2022-09-11T19:08:55.724Z,21.54
2022-09-11T19:10:57.564Z,21.49
2022-09-11T19:13:00.122Z,21.47
2022-09-11T19:15:02.128Z,21.51
2022-09-11T19:17:05.610Z,21.50
2022-09-11T19:19:07.674Z,21.47
2022-09-11T19:21:11.909Z,21.47
2022-09-11T19:23:14.926Z,21.47
2022-09-11T19:25:16.772Z,21.45
2022-09-11T19:27:18.845Z,21.41
2022-09-11T19:29:20.430Z,21.37
2022-09-11T19:31:23.672Z,21.40
2022-09-11T19:33:25.462Z,21.42
2022-09-11T19:35:27.216Z,21.40
2022-09-11T19:37:28.763Z,21.41
2022-09-11T19:39:31.962Z,21.45
2022-09-11T19:41:36.028Z,21.48
2022-09-11T19:43:38.076Z,21.53
2022-09-11T19:45:40.575Z,21.51
2022-09-11T19:47:42.321Z,21.50
2022-09-11T19:49:43.886Z,21.47
2022-09-11T19:51:45.547Z,21.46
2022-09-11T19:53:48.331Z,21.42
2022-09-11T19:55:54.103Z,21.40
2022-09-11T19:57:55.672Z,21.35
2022-09-11T19:59:57.253Z,21.29
2022-09-11T20:02:00.396Z,21.28
2022-09-11T20:04:02.637Z,21.25
2022-09-11T20:06:04.884Z,21.24
2022-09-11T20:08:06.566Z,21.23
2022-09-11T20:10:09.256Z,21.16
2022-09-11T20:12:12.183Z,21.09
2022-09-11T20:14:13.750Z,21.12
2022-09-11T20:16:17.537Z,21.17
2022-09-11T20:18:19.430Z,21.15
2022-09-11T20:20:21.192Z,21.20
2022-09-11T20:22:22.784Z,21.21
2022-09-11T20:24:24.693Z,21.19
2022-09-11T20:26:28.414Z,21.19
2022-09-11T20:28:31.382Z,21.13
2022-09-11T20:30:33.401Z,21.09
2022-09-11T20:32:36.672Z,21.07
2022-09-11T20:34:38.817Z,21.04
2022-09-11T20:36:40.604Z,21.04
2022-09-11T20:38:42.581Z,21.09
2022-09-11T20:40:44.429Z,21.05
2022-09-11T20:42:46.290Z,21.03
2022-09-11T20:44:49.484Z,21.07
2022-09-11T20:46:51.269Z,21.06
2022-09-11T20:48:53.511Z,21.03
2022-09-11T20:50:55.261Z,20.97
2022-09-11T20:52:56.799Z,20.95
2022-09-11T20:55:00.502Z,20.96
2022-09-11T20:57:02.302Z,20.97
2022-09-11T20:59:03.933Z,20.86
2022-09-11T21:01:08.000Z,20.76
2022-09-11T21:03:09.631Z,20.83
2022-09-11T21:05:11.341Z,20.84
2022-09-11T21:07:12.980Z,20.76
2022-09-11T21:09:14.498Z,20.76
2022-09-11T21:11:16.073Z,20.76
2022-09-11T21:13:18.056Z,20.77
2022-09-11T21:15:19.630Z,20.72
2022-09-11T21:17:22.657Z,20.68
2022-09-11T21:19:24.260Z,20.64
2022-09-11T21:21:27.152Z,20.63
2022-09-11T21:23:28.782Z,20.56
2022-09-11T21:25:30.404Z,20.56
2022-09-11T21:27:32.054Z,20.57
2022-09-11T21:29:33.634Z,20.65
2022-09-11T21:31:35.719Z,20.67
2022-09-11T21:33:38.690Z,20.63
2022-09-11T21:35:40.194Z,20.68
2022-09-11T21:37:41.712Z,20.65
2022-09-11T21:39:43.262Z,20.63
2022-09-11T21:41:44.808Z,20.63
2022-09-11T21:43:47.526Z,20.59
2022-09-11T21:45:49.176Z,20.55
2022-09-11T21:47:50.679Z,20.53
2022-09-11T21:49:53.726Z,20.54
2022-09-11T21:51:55.234Z,20.57
2022-09-11T21:53:58.551Z,20.51
2022-09-11T21:56:00.127Z,20.48
2022-09-11T21:58:01.702Z,20.41
2022-09-11T22:00:05.786Z,20.39
2022-09-11T22:02:07.423Z,20.40
2022-09-11T22:04:09.048Z,20.37
2022-09-11T22:06:13.269Z,20.36
2022-09-11T22:08:17.653Z,20.34
2022-09-11T22:10:19.569Z,20.37
2022-09-11T22:12:21.315Z,20.39
2022-09-11T22:14:23.031Z,20.40
2022-09-11T22:16:24.888Z,20.41
2022-09-11T22:18:26.465Z,20.31
2022-09-11T22:20:28.005Z,20.28
2022-09-11T22:22:36.217Z,20.30
2022-09-11T22:24:38.103Z,20.28
2022-09-11T22:26:39.661Z,20.31
2022-09-11T22:28:41.939Z,20.36
2022-09-11T22:30:43.823Z,20.35
2022-09-11T22:32:45.394Z,20.37
2022-09-11T22:34:46.899Z,20.37
2022-09-11T22:36:48.430Z,20.38
2022-09-11T22:38:51.984Z,20.34
2022-09-11T22:40:53.954Z,20.33
2022-09-11T22:42:55.473Z,20.31
2022-09-11T22:44:57.003Z,20.25
2022-09-11T22:46:58.532Z,20.29
2022-09-11T22:49:00.090Z,20.25
2022-09-11T22:51:01.902Z,20.27
2022-09-11T22:53:03.473Z,20.29
2022-09-11T22:55:07.634Z,20.28
2022-09-11T22:57:09.199Z,20.16
2022-09-11T22:59:10.819Z,20.07
2022-09-11T23:01:14.245Z,20.06
2022-09-11T23:03:15.983Z,20.04
2022-09-11T23:05:17.478Z,20.04
2022-09-11T23:07:18.973Z,19.97
2022-09-11T23:09:20.583Z,19.91
2022-09-11T23:11:23.459Z,19.88
2022-09-11T23:13:25.053Z,19.90
2022-09-11T23:15:27.785Z,19.88
2022-09-11T23:17:29.269Z,19.96
2022-09-11T23:19:30.737Z,19.94
2022-09-11T23:21:34.191Z,19.97
2022-09-11T23:23:36.698Z,19.98
2022-09-11T23:25:38.911Z,19.96
2022-09-11T23:27:43.665Z,19.91
2022-09-11T23:29:45.189Z,19.93
2022-09-11T23:31:46.762Z,19.93
2022-09-11T23:33:48.450Z,19.91
2022-09-11T23:35:49.977Z,19.92
2022-09-11T23:37:51.667Z,19.95
2022-09-11T23:39:53.313Z,19.94
2022-09-11T23:41:54.874Z,19.85
2022-09-11T23:43:57.916Z,19.82
2022-09-11T23:45:59.591Z,19.87
2022-09-11T23:48:01.436Z,19.90
2022-09-11T23:50:03.044Z,19.89
2022-09-11T23:52:05.161Z,19.85
2022-09-11T23:54:06.857Z,19.83
2022-09-11T23:56:08.350Z,19.79
2022-09-11T23:58:09.854Z,19.82
